Time;durP1;ratioP1;P1;durP2;ratioP2;P2;SDS_P1;SDS_P2;PMS_P1;PMS_P2;Temp;Humidity;BMP_temperature;BMP_pressure;BME280_temperature;BME280_humidity;BME280_pressure;Samples;Min_cycle;Max_cycle;Signal;HPM_P1;HPM_P2
2022/03/22 00:01:00;;;;;;;49.40;30.10;;;5.90;99.90;;;;;;5089438;28;20048;-80
2022/03/22 00:03:26;;;;;;;51.42;33.28;;;5.90;99.90;;;;;;5091271;28;20458;-81
2022/03/22 00:05:55;;;;;;;52.85;31.88;;;5.90;99.90;;;;;;5093924;28;20505;-81
2022/03/22 00:08:21;;;;;;;53.85;32.75;;;5.90;99.90;;;;;;5090064;28;20040;-81
2022/03/22 00:10:47;;;;;;;50.38;32.35;;;5.80;99.90;;;;;;5087862;28;20040;-80
2022/03/22 00:13:13;;;;;;;51.58;31.85;;;5.80;99.90;;;;;;5099137;28;20070;-81
2022/03/22 00:15:39;;;;;;;52.85;31.45;;;5.80;99.90;;;;;;5092580;28;20048;-80
2022/03/22 00:18:04;;;;;;;52.47;31.48;;;5.80;99.90;;;;;;5094390;28;20056;-81
2022/03/22 00:20:30;;;;;;;49.03;31.58;;;5.80;99.90;;;;;;5089787;28;20051;-81
2022/03/22 00:22:57;;;;;;;52.13;32.40;;;5.80;99.90;;;;;;5094561;28;20040;-80
2022/03/22 00:25:23;;;;;;;51.03;32.05;;;5.70;99.90;;;;;;5091307;28;20035;-80
2022/03/22 00:27:57;;;;;;;53.50;33.20;;;5.70;99.90;;;;;;5090675;28;20036;-80
2022/03/22 00:30:25;;;;;;;53.08;32.08;;;5.70;99.90;;;;;;5087223;28;20052;-81
2022/03/22 00:32:54;;;;;;;;;;;5.70;99.90;;;;;;5090265;28;20494;-81
2022/03/22 00:35:25;;;;;;;49.60;31.40;;;5.70;99.90;;;;;;5086271;28;19966;-80
2022/03/22 00:37:56;;;;;;;61.03;34.58;;;5.60;99.90;;;;;;5093074;28;20036;-80
2022/03/22 00:40:26;;;;;;;54.83;34.50;;;5.60;99.90;;;;;;5088799;28;20123;-80
2022/03/22 00:42:53;;;;;;;53.63;32.65;;;5.60;99.90;;;;;;5089692;28;20051;-80
2022/03/22 00:45:21;;;;;;;52.92;33.90;;;5.60;99.90;;;;;;5090072;28;20486;-80
2022/03/22 00:47:49;;;;;;;52.45;32.58;;;5.60;99.90;;;;;;5090121;28;20497;-80
2022/03/22 00:50:17;;;;;;;53.15;32.95;;;5.60;99.90;;;;;;5091120;28;20062;-81
2022/03/22 00:52:43;;;;;;;53.28;31.05;;;5.60;99.90;;;;;;5097890;28;20051;-81
2022/03/22 00:55:12;;;;;;;55.42;32.63;;;5.60;99.90;;;;;;5092206;28;20040;-80
2022/03/22 00:57:39;;;;;;;53.10;31.85;;;5.60;99.90;;;;;;5086984;28;20044;-79
2022/03/22 01:00:07;;;;;;;49.65;32.25;;;5.50;99.90;;;;;;5084588;28;20050;-80
2022/03/22 01:02:35;;;;;;;52.97;33.17;;;5.50;99.90;;;;;;5104526;28;20044;-80
2022/03/22 01:05:04;;;;;;;50.63;32.30;;;5.80;99.90;;;;;;5090321;28;20032;-79
2022/03/22 01:07:31;;;;;;;54.95;32.33;;;5.50;99.90;;;;;;5081898;28;20043;-79
2022/03/22 01:09:57;;;;;;;50.30;31.55;;;5.50;99.90;;;;;;5090219;28;20402;-80
2022/03/22 01:12:23;;;;;;;54.75;33.70;;;5.40;99.90;;;;;;5090183;28;20033;-79
2022/03/22 01:14:49;;;;;;;50.72;32.33;;;5.40;99.90;;;;;;5085314;28;20040;-79
2022/03/22 01:17:15;;;;;;;52.65;32.70;;;5.40;99.90;;;;;;5093032;28;20048;-80
2022/03/22 01:19:40;;;;;;;55.10;33.38;;;5.40;99.90;;;;;;5092835;28;20051;-80
2022/03/22 01:22:06;;;;;;;53.30;33.35;;;5.40;99.90;;;;;;5097466;28;20048;-80
2022/03/22 01:24:32;;;;;;;55.28;34.00;;;5.40;99.90;;;;;;5079209;28;20037;-80
2022/03/22 01:26:58;;;;;;;49.28;32.13;;;5.40;99.90;;;;;;5093362;28;20052;-80
2022/03/22 01:29:24;;;;;;;56.95;35.80;;;5.40;99.90;;;;;;5086957;28;20059;-80
2022/03/22 01:31:50;;;;;;;57.35;33.42;;;5.30;99.90;;;;;;5084677;28;20044;-80
2022/03/22 01:34:16;;;;;;;50.78;32.63;;;5.30;99.90;;;;;;5099627;28;20043;-80
2022/03/22 01:36:42;;;;;;;53.80;33.00;;;5.30;99.90;;;;;;5105638;28;20176;-80
2022/03/22 01:39:07;;;;;;;51.17;31.15;;;5.20;99.90;;;;;;5094617;28;20059;-80
2022/03/22 01:41:34;;;;;;;56.95;33.63;;;5.20;99.90;;;;;;5087876;28;20496;-80
2022/03/22 01:44:00;;;;;;;59.10;34.33;;;5.20;99.90;;;;;;5101168;28;20491;-80
2022/03/22 01:46:25;;;;;;;57.50;33.60;;;5.10;99.90;;;;;;5098251;28;20039;-79
2022/03/22 01:48:54;;;;;;;52.28;33.03;;;5.10;99.90;;;;;;5096352;28;20054;-80
2022/03/22 01:51:22;;;;;;;49.05;31.52;;;5.10;99.90;;;;;;5091559;28;20040;-80
2022/03/22 01:53:49;;;;;;;56.90;34.77;;;5.10;99.90;;;;;;5095329;28;20038;-80
2022/03/22 01:56:15;;;;;;;54.90;33.28;;;5.10;99.90;;;;;;5124739;27;20072;-80
2022/03/22 01:58:42;;;;;;;56.25;34.00;;;5.10;99.90;;;;;;5098774;28;20117;-80
2022/03/22 02:06:37;;;;;;;53.47;33.53;;;5.00;99.90;;;;;;5093854;28;20048;-80
2022/03/22 02:09:03;;;;;;;54.20;33.20;;;5.00;99.90;;;;;;5093880;28;20101;-80
2022/03/22 02:11:29;;;;;;;54.17;34.47;;;5.00;99.90;;;;;;5096338;28;20044;-80
2022/03/22 02:13:56;;;;;;;54.10;34.30;;;5.00;99.90;;;;;;5098715;28;20039;-80
2022/03/22 02:16:22;;;;;;;55.55;33.72;;;5.00;99.90;;;;;;5093102;28;20036;-80
2022/03/22 02:18:50;;;;;;;56.22;33.30;;;5.00;99.90;;;;;;5095705;28;20093;-79
2022/03/22 02:21:18;;;;;;;53.85;32.95;;;5.00;99.90;;;;;;5101285;28;20029;-80
2022/03/22 02:23:56;;;;;;;56.58;34.63;;;5.00;99.90;;;;;;5106621;28;20040;-80
2022/03/22 02:26:24;;;;;;;58.03;33.60;;;5.00;99.90;;;;;;5109990;28;20398;-79
2022/03/22 02:28:53;;;;;;;56.17;34.17;;;5.00;99.90;;;;;;5102810;28;20306;-79
2022/03/22 02:31:27;;;;;;;53.58;33.90;;;5.00;99.90;;;;;;5105883;28;20044;-80
2022/03/22 02:33:53;;;;;;;57.38;34.67;;;5.00;99.90;;;;;;5090905;28;20032;-80
2022/03/22 02:36:19;;;;;;;61.53;34.83;;;5.10;99.90;;;;;;5127671;27;20533;-80
2022/03/22 02:38:45;;;;;;;56.40;33.35;;;5.10;99.90;;;;;;5126876;27;20040;-80
2022/03/22 02:41:19;;;;;;;60.15;34.47;;;5.20;99.90;;;;;;5090760;28;20043;-80
2022/03/22 02:43:46;;;;;;;56.13;33.38;;;5.20;99.90;;;;;;5102406;28;20421;-80
2022/03/22 02:46:12;;;;;;;59.65;34.55;;;5.20;99.90;;;;;;5093826;28;20044;-80
2022/03/22 02:48:37;;;;;;;56.42;32.50;;;5.20;99.90;;;;;;5091937;28;20047;-79
2022/03/22 02:51:04;;;;;;;54.00;34.25;;;5.20;99.90;;;;;;5099521;28;20043;-80
2022/03/22 02:53:29;;;;;;;54.47;34.33;;;5.20;99.90;;;;;;5092380;28;20563;-80
2022/03/22 02:55:55;;;;;;;56.90;34.60;;;5.20;99.90;;;;;;5092872;28;20063;-80
2022/03/22 02:58:20;;;;;;;64.20;34.35;;;5.10;99.90;;;;;;5093405;28;20050;-80
2022/03/22 03:00:46;;;;;;;61.78;35.47;;;5.10;99.90;;;;;;5094138;28;20096;-80
2022/03/22 03:03:12;;;;;;;56.75;34.45;;;5.10;99.90;;;;;;5091358;28;20079;-80
2022/03/22 03:05:38;;;;;;;61.22;34.88;;;5.10;99.90;;;;;;5090169;28;20444;-80
2022/03/22 03:08:04;;;;;;;54.95;34.20;;;5.10;99.90;;;;;;5092903;28;20487;-80
2022/03/22 03:10:32;;;;;;;56.00;33.85;;;5.10;99.90;;;;;;5107100;28;20070;-79
2022/03/22 03:13:03;;;;;;;51.17;33.20;;;5.00;99.90;;;;;;5092264;28;20046;-79
2022/03/22 03:15:29;;;;;;;55.13;34.00;;;5.00;99.90;;;;;;5092398;28;20540;-80
2022/03/22 03:17:55;;;;;;;56.20;33.25;;;5.00;99.90;;;;;;5096909;28;20051;-80
2022/03/22 03:20:20;;;;;;;53.95;34.08;;;5.00;99.90;;;;;;5096087;28;20040;-80
2022/03/22 03:22:46;;;;;;;59.88;34.20;;;5.00;99.90;;;;;;5092964;28;20037;-80
2022/03/22 03:25:13;;;;;;;55.60;34.08;;;4.90;99.90;;;;;;5104320;28;20043;-80
2022/03/22 03:27:38;;;;;;;57.13;33.95;;;4.90;99.90;;;;;;5094513;28;20101;-80
2022/03/22 03:30:05;;;;;;;54.45;34.30;;;4.90;99.90;;;;;;5094348;28;20035;-80
2022/03/22 03:32:31;;;;;;;56.35;35.28;;;4.90;99.90;;;;;;5094497;28;20114;-80
2022/03/22 03:34:57;;;;;;;64.82;36.38;;;4.90;99.90;;;;;;5092777;28;20101;-80
2022/03/22 03:37:24;;;;;;;56.95;34.95;;;4.90;99.90;;;;;;5085634;28;20048;-80
2022/03/22 03:39:51;;;;;;;56.88;32.85;;;4.90;99.90;;;;;;5089546;28;20495;-80
2022/03/22 03:42:16;;;;;;;57.75;33.10;;;4.90;99.90;;;;;;5096264;28;20161;-80
2022/03/22 03:47:27;;;;;;;57.42;35.25;;;4.90;99.90;;;;;;5092601;28;20044;-80
2022/03/22 03:49:55;;;;;;;56.88;34.50;;;4.80;99.90;;;;;;5093577;28;20047;-80
2022/03/22 03:52:23;;;;;;;61.55;34.80;;;4.80;99.90;;;;;;5094071;28;20074;-80
2022/03/22 03:54:50;;;;;;;56.88;34.13;;;4.80;99.90;;;;;;5085725;28;20479;-80
2022/03/22 03:57:17;;;;;;;59.65;34.75;;;4.80;99.90;;;;;;5091789;28;20040;-80
2022/03/22 03:59:43;;;;;;;56.00;34.05;;;4.80;99.90;;;;;;5091632;28;20093;-80
2022/03/22 04:02:08;;;;;;;58.58;35.60;;;4.70;99.90;;;;;;5089264;28;20423;-81
2022/03/22 04:04:35;;;;;;;56.03;35.38;;;4.70;99.90;;;;;;5084537;28;20051;-80
2022/03/22 04:07:02;;;;;;;54.05;34.60;;;4.70;99.90;;;;;;5092342;28;20044;-80
2022/03/22 04:09:28;;;;;;;57.38;34.63;;;4.70;99.90;;;;;;5090009;28;20435;-80
2022/03/22 04:11:54;;;;;;;60.65;35.55;;;4.70;99.90;;;;;;5091638;28;20178;-81
2022/03/22 04:14:19;;;;;;;64.72;35.35;;;4.70;99.90;;;;;;5091679;28;20036;-80
2022/03/22 04:16:46;;;;;;;58.42;35.05;;;4.70;99.90;;;;;;5089154;28;20048;-81
2022/03/22 04:19:12;;;;;;;54.42;34.42;;;4.70;99.90;;;;;;5092138;28;20474;-80
2022/03/22 04:21:39;;;;;;;60.05;35.67;;;4.80;99.90;;;;;;5093281;28;20044;-80
2022/03/22 04:24:09;;;;;;;64.55;35.55;;;4.80;99.90;;;;;;5088579;28;20397;-80
2022/03/22 04:26:36;;;;;;;60.67;37.72;;;4.80;99.90;;;;;;5085227;28;20142;-80
2022/03/22 04:34:32;;;;;;;59.60;36.75;;;4.80;99.90;;;;;;5096433;28;20074;-80
2022/03/22 04:36:59;;;;;;;58.88;35.97;;;4.80;99.90;;;;;;5098548;28;20036;-80
2022/03/22 04:39:27;;;;;;;59.03;35.20;;;4.80;99.90;;;;;;5094363;28;20471;-80
2022/03/22 04:41:53;;;;;;;64.00;37.47;;;4.90;99.90;;;;;;5090376;28;20039;-80
2022/03/22 04:44:19;;;;;;;60.88;36.83;;;4.90;99.90;;;;;;5092233;28;20041;-79
2022/03/22 04:46:45;;;;;;;59.42;35.30;;;4.90;99.90;;;;;;5124726;28;20051;-79
2022/03/22 04:49:11;;;;;;;63.53;36.05;;;5.00;99.90;;;;;;5084747;28;20450;-79
2022/03/22 04:57:05;;;;;;;56.88;35.58;;;5.00;99.90;;;;;;5091925;28;20078;-80
2022/03/22 04:59:30;;;;;;;61.13;34.50;;;5.00;99.90;;;;;;5084949;28;20049;-80
2022/03/22 05:01:57;;;;;;;59.75;33.53;;;5.00;99.90;;;;;;5093356;28;20040;-80
2022/03/22 05:04:23;;;;;;;58.17;35.67;;;5.00;99.90;;;;;;5096971;28;20092;-79
2022/03/22 05:06:48;;;;;;;58.20;34.88;;;5.00;99.90;;;;;;5096124;28;20048;-80
2022/03/22 05:09:14;;;;;;;59.85;35.75;;;5.00;99.90;;;;;;5093811;28;20036;-80
2022/03/22 05:11:40;;;;;;;62.33;35.78;;;4.90;99.90;;;;;;5083027;28;20381;-79
2022/03/22 05:14:06;;;;;;;56.63;34.50;;;4.90;99.90;;;;;;5096117;28;20055;-80
2022/03/22 05:16:33;;;;;;;62.90;36.80;;;4.90;99.90;;;;;;5094438;28;20060;-79
2022/03/22 05:18:59;;;;;;;52.97;33.85;;;4.90;99.90;;;;;;5096082;28;20036;-79
2022/03/22 05:21:26;;;;;;;56.60;33.00;;;4.90;99.90;;;;;;5084461;28;20118;-79
2022/03/22 05:23:52;;;;;;;56.42;34.25;;;4.80;99.90;;;;;;5097664;28;20490;-79
2022/03/22 05:26:18;;;;;;;57.40;35.03;;;4.80;99.90;;;;;;5094492;28;20038;-79
2022/03/22 05:28:44;;;;;;;56.28;35.55;;;4.80;99.90;;;;;;5094394;28;20032;-79
2022/03/22 05:31:12;;;;;;;57.92;34.30;;;4.80;99.90;;;;;;5087267;28;20064;-79
2022/03/22 05:33:38;;;;;;;57.65;35.20;;;4.80;99.90;;;;;;5092289;28;20109;-79
2022/03/22 05:36:05;;;;;;;56.83;35.72;;;4.80;99.90;;;;;;5092328;28;20044;-79
2022/03/22 05:38:31;;;;;;;58.90;36.88;;;4.80;99.90;;;;;;5087432;28;20059;-79
2022/03/22 05:40:57;;;;;;;63.08;36.00;;;4.80;99.90;;;;;;5089998;28;20044;-80
2022/03/22 05:43:24;;;;;;;59.25;34.35;;;4.80;99.90;;;;;;5090937;28;20067;-80
2022/03/22 05:45:50;;;;;;;56.03;34.90;;;4.80;99.90;;;;;;5092602;28;20141;-79
2022/03/22 05:48:20;;;;;;;58.63;36.20;;;4.80;99.90;;;;;;5094980;28;20388;-80
2022/03/22 05:50:46;;;;;;;59.08;35.38;;;4.80;99.90;;;;;;5089880;28;20521;-80
2022/03/22 05:53:12;;;;;;;63.08;35.97;;;4.80;99.90;;;;;;5093866;28;20066;-80
2022/03/22 05:55:39;;;;;;;62.97;35.40;;;4.90;99.90;;;;;;5101550;28;20101;-80
2022/03/22 05:58:08;;;;;;;57.90;34.70;;;4.80;99.90;;;;;;5097049;28;20040;-80
2022/03/22 06:00:35;;;;;;;59.78;35.50;;;4.80;99.90;;;;;;5106333;28;20056;-79
2022/03/22 06:03:01;;;;;;;64.68;35.72;;;4.90;99.90;;;;;;5109652;28;20070;-79
2022/03/22 06:05:30;;;;;;;57.00;34.75;;;4.90;99.90;;;;;;5100946;28;20044;-79
2022/03/22 06:07:57;;;;;;;56.22;34.35;;;5.00;99.90;;;;;;5092311;28;20040;-79
2022/03/22 06:10:23;;;;;;;64.30;35.80;;;5.00;99.90;;;;;;5091747;28;20436;-80
2022/03/22 06:12:51;;;;;;;56.15;34.67;;;5.00;99.90;;;;;;5092324;28;20101;-76
2022/03/22 06:15:23;;;;;;;59.95;34.83;;;5.10;99.90;;;;;;5078308;28;20474;-76
2022/03/22 06:17:51;;;;;;;53.13;34.13;;;5.10;99.90;;;;;;5094321;28;20131;-76
2022/03/22 06:20:19;;;;;;;55.53;34.63;;;5.20;99.90;;;;;;5101014;28;20051;-76
2022/03/22 06:22:45;;;;;;;55.33;32.87;;;5.30;99.90;;;;;;5117826;27;20485;-77
2022/03/22 06:25:13;;;;;;;55.22;33.80;;;5.30;99.90;;;;;;5086723;28;20059;-78
2022/03/22 06:27:39;;;;;;;63.65;34.55;;;5.70;99.90;;;;;;5102901;28;20040;-77
2022/03/22 06:30:06;;;;;;;60.78;34.17;;;5.50;99.90;;;;;;5099450;28;20066;-77
2022/03/22 06:32:49;;;;;;;59.85;33.58;;;5.60;99.90;;;;;;5109758;28;20060;-77
2022/03/22 06:35:17;;;;;;;55.28;34.25;;;5.90;99.90;;;;;;5101939;28;20051;-77
2022/03/22 06:37:43;;;;;;;63.17;33.38;;;5.70;99.90;;;;;;5103577;28;20043;-76
2022/03/22 06:40:10;;;;;;;52.63;31.67;;;5.80;99.90;;;;;;5107868;28;20108;-76
2022/03/22 06:42:37;;;;;;;58.38;34.30;;;5.90;99.90;;;;;;5103379;28;20044;-76
2022/03/22 06:45:04;;;;;;;55.38;32.95;;;5.90;99.90;;;;;;5108791;28;20062;-76
2022/03/22 06:47:30;;;;;;;53.47;32.72;;;6.00;99.90;;;;;;5100249;28;20056;-76
2022/03/22 06:49:56;;;;;;;61.63;33.28;;;6.70;99.90;;;;;;5100321;28;20036;-76
2022/03/22 06:52:22;;;;;;;63.45;33.85;;;6.10;99.90;;;;;;5097787;28;20060;-76
2022/03/22 06:54:48;;;;;;;65.03;34.22;;;6.20;99.90;;;;;;5095709;28;20044;-76
2022/03/22 06:57:14;;;;;;;56.45;33.50;;;6.30;99.90;;;;;;5092388;28;20118;-76
2022/03/22 06:59:39;;;;;;;56.28;33.10;;;6.40;99.90;;;;;;5090397;28;20044;-76
2022/03/22 07:02:05;;;;;;;56.92;32.53;;;6.40;99.90;;;;;;5101464;28;20028;-77
2022/03/22 07:04:31;;;;;;;55.95;33.25;;;6.50;99.90;;;;;;5112331;28;20080;-76
2022/03/22 07:06:57;;;;;;;51.88;33.85;;;6.60;99.90;;;;;;5111188;28;20130;-76
2022/03/22 07:09:23;;;;;;;59.08;34.63;;;6.60;99.90;;;;;;5111581;28;20036;-75
2022/03/22 07:11:52;;;;;;;58.25;33.88;;;6.80;99.90;;;;;;5114339;28;20585;-75
2022/03/22 07:14:20;;;;;;;63.17;34.80;;;6.90;99.90;;;;;;5109796;28;20048;-75
2022/03/22 07:16:47;;;;;;;58.55;34.67;;;7.00;99.90;;;;;;5114346;28;20056;-74
2022/03/22 07:19:14;;;;;;;61.42;32.95;;;7.10;99.90;;;;;;5117402;28;20043;-75
2022/03/22 07:21:41;;;;;;;56.88;34.08;;;7.20;99.90;;;;;;5117010;28;20055;-75
2022/03/22 07:24:07;;;;;;;55.13;33.83;;;7.30;99.90;;;;;;5109445;28;20036;-75
2022/03/22 07:26:33;;;;;;;59.90;34.75;;;7.40;99.90;;;;;;5119869;28;20040;-76
2022/03/22 07:28:58;;;;;;;54.35;32.47;;;7.50;99.90;;;;;;5098420;28;20075;-76
2022/03/22 07:31:24;;;;;;;54.90;32.85;;;7.50;99.90;;;;;;5107136;28;20040;-75
2022/03/22 07:33:50;;;;;;;55.38;33.28;;;7.90;99.90;;;;;;5097101;28;20040;-75
2022/03/22 07:36:16;;;;;;;64.10;34.88;;;7.60;99.90;;;;;;5103471;28;20042;-75
2022/03/22 07:38:43;;;;;;;59.38;34.30;;;7.70;99.90;;;;;;5108401;28;20574;-75
2022/03/22 07:41:10;;;;;;;56.58;33.60;;;7.90;99.90;;;;;;5113332;28;20048;-75
2022/03/22 07:43:37;;;;;;;57.75;33.80;;;7.80;99.90;;;;;;5113155;28;20032;-75
2022/03/22 07:46:04;;;;;;;61.97;34.03;;;7.80;99.90;;;;;;5116167;28;20012;-76
2022/03/22 07:48:29;;;;;;;56.88;32.28;;;7.40;99.90;;;;;;5113594;28;20075;-75
2022/03/22 07:53:43;;;;;;;56.40;33.30;;;8.10;99.90;;;;;;5104264;28;20040;-75
2022/03/22 07:56:08;;;;;;;;;;;8.30;99.90;;;;;;5112842;28;20048;-74
2022/03/22 07:58:34;;;;;;;68.97;30.73;;;8.50;99.90;;;;;;5108939;28;19943;-75
2022/03/22 08:00:59;;;;;;;55.67;30.95;;;8.70;99.90;;;;;;5110502;28;20036;-75
2022/03/22 08:03:26;;;;;;;53.10;30.23;;;9.00;99.90;;;;;;5114804;28;20048;-75
2022/03/22 08:05:53;;;;;;;53.25;31.38;;;9.20;99.90;;;;;;5114679;28;20058;-76
2022/03/22 08:08:20;;;;;;;58.20;30.75;;;9.40;99.90;;;;;;5109637;28;20036;-75
2022/03/22 08:10:46;;;;;;;56.75;30.50;;;9.70;99.90;;;;;;5107258;28;20043;-75
2022/03/22 08:13:13;;;;;;;53.80;29.73;;;10.00;99.90;;;;;;5104529;28;20040;-76
2022/03/22 08:15:39;;;;;;;52.97;29.27;;;10.20;99.90;;;;;;5091323;28;20044;-76
2022/03/22 08:18:06;;;;;;;51.75;29.90;;;10.50;99.90;;;;;;5100588;28;20083;-76
2022/03/22 08:20:32;;;;;;;47.30;28.40;;;10.80;99.90;;;;;;5111523;28;20197;-77
2022/03/22 08:23:04;;;;;;;47.50;28.42;;;11.20;99.90;;;;;;5107914;28;20510;-77
2022/03/22 08:25:31;;;;;;;47.47;28.25;;;11.30;99.90;;;;;;5108598;28;20398;-77
2022/03/22 08:27:59;;;;;;;42.38;27.50;;;11.60;99.90;;;;;;5108134;28;20028;-77
2022/03/22 08:30:26;;;;;;;52.28;27.77;;;11.80;99.90;;;;;;5114748;28;20078;-76
2022/03/22 08:32:54;;;;;;;49.22;28.25;;;11.90;99.90;;;;;;5113227;28;20044;-76
2022/03/22 08:35:21;;;;;;;53.72;29.10;;;11.80;99.90;;;;;;5116361;28;20024;-76
2022/03/22 08:37:47;;;;;;;45.78;27.17;;;11.80;99.90;;;;;;5117752;28;20047;-76
2022/03/22 08:40:14;;;;;;;48.67;27.58;;;11.70;99.90;;;;;;5120234;28;20036;-76
2022/03/22 08:42:44;;;;;;;48.25;28.10;;;11.80;99.90;;;;;;5130473;28;20046;-76
2022/03/22 08:45:16;;;;;;;50.88;28.15;;;11.60;99.90;;;;;;5111727;28;20055;-76
2022/03/22 08:47:45;;;;;;;51.58;27.63;;;11.60;99.90;;;;;;5104880;28;20065;-76
2022/03/22 08:50:15;;;;;;;45.83;28.70;;;11.70;99.90;;;;;;5119528;28;20103;-76
2022/03/22 08:52:42;;;;;;;47.75;27.38;;;11.80;99.90;;;;;;5130213;28;20024;-76
2022/03/22 08:55:11;;;;;;;53.45;28.10;;;12.00;99.90;;;;;;5119364;28;20068;-75
2022/03/22 08:57:37;;;;;;;47.05;27.80;;;12.20;99.90;;;;;;5104943;28;20024;-75
2022/03/22 09:00:08;;;;;;;50.60;27.73;;;12.40;99.90;;;;;;5115939;28;20019;-75
2022/03/22 09:02:42;;;;;;;47.40;26.98;;;12.70;99.90;;;;;;5136438;28;20044;-75
2022/03/22 09:07:58;;;;;;;41.72;26.27;;;13.10;99.90;;;;;;5101782;28;20037;-75
2022/03/22 09:10:25;;;;;;;42.67;27.30;;;13.30;99.90;;;;;;5106993;28;20036;-75
2022/03/22 09:12:51;;;;;;;44.80;26.70;;;13.40;99.90;;;;;;5115605;28;20039;-75
2022/03/22 09:15:18;;;;;;;41.92;26.25;;;13.60;99.90;;;;;;5113628;28;22744;-75
2022/03/22 09:17:45;;;;;;;41.38;25.90;;;13.80;99.90;;;;;;5110863;28;20051;-75
2022/03/22 09:20:13;;;;;;;39.42;26.35;;;14.00;99.90;;;;;;5116013;28;20047;-76
2022/03/22 09:22:43;;;;;;;43.03;27.08;;;14.20;99.90;;;;;;5114576;28;20054;-75
2022/03/22 09:25:10;;;;;;;54.60;26.73;;;14.40;99.90;;;;;;5115480;28;20530;-75
2022/03/22 09:27:43;;;;;;;42.17;27.05;;;14.70;99.90;;;;;;5116856;28;20049;-76
2022/03/22 09:30:10;;;;;;;44.40;27.75;;;14.90;99.90;;;;;;5110841;27;20043;-76
2022/03/22 09:32:36;;;;;;;42.67;26.30;;;15.10;99.90;;;;;;5119051;28;20048;-76
2022/03/22 09:35:06;;;;;;;40.78;26.15;;;15.30;99.40;;;;;;5107252;28;20062;-76
2022/03/22 09:37:35;;;;;;;40.65;26.27;;;15.50;98.80;;;;;;5095772;28;20031;-76
2022/03/22 09:40:02;;;;;;;41.47;25.98;;;15.70;98.60;;;;;;5115638;28;20048;-76
2022/03/22 09:42:28;;;;;;;42.83;26.08;;;15.90;98.60;;;;;;5079261;28;20075;-76
2022/03/22 09:44:54;;;;;;;41.85;25.65;;;16.10;98.10;;;;;;5094949;28;20036;-76
2022/03/22 09:47:20;;;;;;;41.70;25.85;;;16.10;97.40;;;;;;5112777;28;20040;-76
2022/03/22 09:49:45;;;;;;;42.38;25.95;;;16.30;97.30;;;;;;5118847;28;20040;-76
2022/03/22 09:52:12;;;;;;;42.80;26.05;;;16.40;96.80;;;;;;5113414;28;20036;-76
2022/03/22 09:54:42;;;;;;;45.70;26.35;;;16.60;97.10;;;;;;5110246;28;20118;-75
2022/03/22 09:57:07;;;;;;;44.65;25.55;;;16.80;95.60;;;;;;5117546;28;20036;-76
2022/03/22 09:59:35;;;;;;;46.15;25.92;;;17.10;96.10;;;;;;5120022;28;20050;-76
2022/03/22 10:02:01;;;;;;;40.63;25.27;;;17.10;94.60;;;;;;5117753;28;20072;-76
2022/03/22 10:04:40;;;;;;;39.92;25.45;;;17.30;94.70;;;;;;5105453;28;20040;-76
2022/03/22 10:07:07;;;;;;;46.45;25.38;;;17.40;92.90;;;;;;5119443;28;20047;-76
2022/03/22 10:09:39;;;;;;;39.75;23.63;;;17.70;93.90;;;;;;5116213;28;20036;-76
2022/03/22 10:12:07;;;;;;;40.33;24.95;;;17.90;93.00;;;;;;5117882;28;20044;-76
2022/03/22 10:14:34;;;;;;;35.65;22.83;;;18.00;92.00;;;;;;5119244;28;20028;-75
2022/03/22 10:17:09;;;;;;;40.42;23.48;;;18.10;91.20;;;;;;5117919;28;20498;-76
2022/03/22 10:19:47;;;;;;;39.78;23.17;;;18.20;90.10;;;;;;5118741;28;20040;-76
2022/03/22 10:22:14;;;;;;;37.08;22.63;;;18.40;89.20;;;;;;5119351;27;20036;-76
2022/03/22 10:24:47;;;;;;;41.45;25.02;;;18.50;89.80;;;;;;5118853;28;20097;-76
2022/03/22 10:27:36;;;;;;;33.22;23.33;;;18.60;86.20;;;;;;5106299;28;20031;-76
2022/03/22 10:30:05;;;;;;;38.47;24.92;;;19.00;84.70;;;;;;5106353;28;20043;-75
2022/03/22 10:32:36;;;;;;;36.45;23.70;;;19.30;85.90;;;;;;5115161;28;20044;-75
2022/03/22 10:35:21;;;;;;;31.25;22.20;;;19.50;82.40;;;;;;5105006;28;20021;-75
2022/03/22 10:37:51;;;;;;;32.90;22.55;;;19.60;79.90;;;;;;5103699;28;20064;-76
2022/03/22 10:40:23;;;;;;;34.45;23.10;;;19.80;82.10;;;;;;5117861;28;20050;-75
2022/03/22 10:42:53;;;;;;;38.42;23.42;;;20.00;79.60;;;;;;5120139;28;20039;-75
2022/03/22 10:45:19;;;;;;;31.63;21.75;;;20.10;78.80;;;;;;5119601;28;20104;-76
2022/03/22 10:47:46;;;;;;;31.38;20.77;;;20.20;78.30;;;;;;5119012;28;20027;-74
2022/03/22 10:50:12;;;;;;;31.60;20.45;;;20.40;76.40;;;;;;5110934;28;20044;-75
2022/03/22 10:52:56;;;;;;;29.60;21.20;;;20.60;74.70;;;;;;5100414;28;20017;-75
2022/03/22 10:55:27;;;;;;;33.65;21.10;;;20.40;71.00;;;;;;5117198;28;20063;-76
2022/03/22 10:57:55;;;;;;;30.92;19.23;;;20.60;72.30;;;;;;5097512;28;20047;-75
2022/03/22 11:00:22;;;;;;;34.30;19.83;;;20.60;71.30;;;;;;5100505;28;20052;-75
2022/03/22 11:02:52;;;;;;;41.90;20.83;;;20.60;69.90;;;;;;5117423;28;20075;-76
2022/03/22 11:05:22;;;;;;;30.98;19.95;;;20.80;70.80;;;;;;5112712;28;20151;-76
2022/03/22 11:07:52;;;;;;;32.55;20.48;;;21.10;68.50;;;;;;5113452;28;20390;-75
2022/03/22 11:10:29;;;;;;;38.10;20.52;;;21.20;67.50;;;;;;5126118;28;20032;-75
2022/03/22 11:12:57;;;;;;;32.83;20.70;;;21.30;67.30;;;;;;5113337;28;20079;-76
2022/03/22 11:15:24;;;;;;;29.17;19.98;;;21.60;67.40;;;;;;5116218;27;20023;-76
2022/03/22 11:17:52;;;;;;;34.70;21.13;;;21.70;65.70;;;;;;5111143;28;20077;-75
2022/03/22 11:20:18;;;;;;;33.05;20.30;;;21.60;63.90;;;;;;5114001;28;20041;-76
2022/03/22 11:22:49;;;;;;;33.05;20.73;;;21.80;65.20;;;;;;5107401;28;20056;-75
2022/03/22 11:25:18;;;;;;;41.30;21.40;;;22.10;64.40;;;;;;5083420;28;20079;-76
2022/03/22 11:27:57;;;;;;;30.33;21.70;;;22.10;62.70;;;;;;5109940;28;20055;-76
2022/03/22 11:30:24;;;;;;;33.78;20.40;;;22.30;61.30;;;;;;5117228;28;20044;-76
2022/03/22 11:35:45;;;;;;;34.20;20.58;;;22.50;62.00;;;;;;5099441;28;20396;-76
2022/03/22 11:38:14;;;;;;;30.70;22.38;;;22.80;61.50;;;;;;5098117;28;20036;-77
2022/03/22 11:43:42;;;;;;;32.95;22.23;;;22.90;59.70;;;;;;5107149;28;20075;-76
2022/03/22 11:46:08;;;;;;;39.92;22.05;;;23.30;59.00;;;;;;5094329;28;20592;-77
2022/03/22 11:48:37;;;;;;;37.78;22.13;;;23.50;59.70;;;;;;5090435;28;20048;-76
2022/03/22 11:51:07;;;;;;;36.22;23.35;;;23.60;58.50;;;;;;5094129;28;20040;-76
2022/03/22 11:53:45;;;;;;;37.15;21.45;;;23.70;57.10;;;;;;5097702;28;20040;-75
2022/03/22 11:56:11;;;;;;;34.40;20.52;;;23.90;56.30;;;;;;5075828;28;20090;-76
2022/03/22 11:58:47;;;;;;;38.47;22.65;;;23.80;56.50;;;;;;5093072;28;20105;-77
2022/03/22 12:01:15;;;;;;;32.05;21.92;;;23.80;56.40;;;;;;5095611;28;20089;-78
2022/03/22 12:03:51;;;;;;;37.45;20.75;;;23.70;55.30;;;;;;5092711;28;20096;-76
2022/03/22 12:06:17;;;;;;;32.10;23.05;;;23.80;56.00;;;;;;5081218;28;20041;-76
2022/03/22 12:08:43;;;;;;;31.50;21.75;;;23.90;55.90;;;;;;5096736;28;20043;-75
2022/03/22 12:11:15;;;;;;;30.15;22.42;;;23.60;53.30;;;;;;5095659;28;20044;-75
2022/03/22 12:13:44;;;;;;;32.35;22.90;;;23.60;54.40;;;;;;5081011;28;20227;-76
2022/03/22 12:16:10;;;;;;;34.38;21.90;;;23.60;54.80;;;;;;5076613;28;20045;-76
2022/03/22 12:18:36;;;;;;;34.72;23.23;;;23.60;55.10;;;;;;5075143;28;20048;-76
2022/03/22 12:21:01;;;;;;;30.83;21.70;;;23.60;54.90;;;;;;5087011;28;20040;-76
2022/03/22 12:23:28;;;;;;;32.90;21.92;;;23.70;54.40;;;;;;5085875;28;20036;-76
2022/03/22 12:25:54;;;;;;;29.92;22.08;;;23.90;54.60;;;;;;5090688;28;20068;-77
2022/03/22 12:28:20;;;;;;;39.10;21.95;;;24.30;54.80;;;;;;5091505;28;20046;-75
2022/03/22 12:30:47;;;;;;;37.80;21.73;;;24.50;54.20;;;;;;5099376;28;20040;-76
2022/03/22 12:33:15;;;;;;;37.50;21.20;;;24.70;52.80;;;;;;5090613;28;20052;-76
2022/03/22 12:35:43;;;;;;;30.92;21.70;;;24.80;52.70;;;;;;5097001;28;20043;-77
2022/03/22 12:38:10;;;;;;;34.83;21.60;;;25.00;52.50;;;;;;5112238;28;20048;-77
2022/03/22 12:40:37;;;;;;;36.88;21.20;;;25.20;51.90;;;;;;5099831;28;20059;-79
2022/03/22 12:43:12;;;;;;;33.03;21.08;;;25.30;51.30;;;;;;5077546;28;20478;-76
2022/03/22 12:45:42;;;;;;;33.20;22.73;;;25.60;51.00;;;;;;5087788;28;20047;-77
2022/03/22 12:48:08;;;;;;;30.90;21.10;;;25.50;49.70;;;;;;5091768;28;20415;-78
2022/03/22 12:50:33;;;;;;;29.23;19.88;;;25.40;49.90;;;;;;5086917;28;20036;-77
2022/03/22 12:52:59;;;;;;;38.35;21.45;;;25.30;50.10;;;;;;5093358;28;20141;-76
2022/03/22 12:55:27;;;;;;;31.17;21.90;;;25.30;49.90;;;;;;5106500;28;20047;-76
2022/03/22 12:57:56;;;;;;;35.63;21.63;;;25.00;50.10;;;;;;5111269;28;20106;-76
2022/03/22 13:00:31;;;;;;;38.08;22.30;;;24.90;50.10;;;;;;5091220;28;20047;-76
2022/03/22 13:03:10;;;;;;;30.25;20.88;;;24.80;49.20;;;;;;5103526;28;20028;-76
2022/03/22 13:05:43;;;;;;;37.70;22.35;;;25.10;49.60;;;;;;5104301;28;20048;-76